createdAt,value
2022-08-09T00:04:08.534Z,57.62
2022-08-09T00:55:02.921Z,60.60
2022-08-09T00:57:50.468Z,61.07
2022-08-09T01:00:45.865Z,60.94
2022-08-09T01:03:46.282Z,60.81
2022-08-09T01:07:01.951Z,61.27
2022-08-09T01:10:03.706Z,61.21
2022-08-09T01:13:41.990Z,61.09
2022-08-09T01:16:47.210Z,61.29
2022-08-09T01:20:02.748Z,61.49
2022-08-09T01:22:51.218Z,60.98
2022-08-09T01:25:56.356Z,61.18
2022-08-09T01:28:44.991Z,61.23
2022-08-09T01:32:31.030Z,61.02
2022-08-09T01:34:39.372Z,61.63
2022-08-09T01:38:05.821Z,61.65
2022-08-09T01:41:03.119Z,62.48
2022-08-09T01:43:55.780Z,62.70
2022-08-09T01:46:47.053Z,62.90
2022-08-09T01:49:38.999Z,62.72
2022-08-09T01:52:26.139Z,62.90
2022-08-09T01:55:13.900Z,63.02
2022-08-09T01:58:00.502Z,63.25
2022-08-09T02:00:50.599Z,63.48
2022-08-09T02:03:37.342Z,62.91
2022-08-09T02:06:45.382Z,62.77
2022-08-09T02:09:48.852Z,63.40
2022-08-09T02:12:46.139Z,64.02
2022-08-09T02:15:36.337Z,64.23
2022-08-09T02:18:36.497Z,64.46
2022-08-09T02:21:23.310Z,64.55
2022-08-09T02:24:11.587Z,64.74
2022-08-09T02:27:13.171Z,64.84
2022-08-09T02:30:06.595Z,64.44
2022-08-09T02:32:53.907Z,64.61
2022-08-09T02:36:02.614Z,64.76
2022-08-09T02:38:51.807Z,64.67
2022-08-09T02:41:44.861Z,64.76
2022-08-09T02:44:35.550Z,64.90
2022-08-09T02:47:22.549Z,64.82
2022-08-09T02:50:14.075Z,65.09
2022-08-09T02:53:04.115Z,65.10
2022-08-09T02:55:58.569Z,65.04
2022-08-09T03:02:06.429Z,64.90
2022-08-09T03:04:54.894Z,64.86
2022-08-09T03:07:44.477Z,65.00
2022-08-09T03:10:46.137Z,65.22
2022-08-09T03:14:16.119Z,65.97
2022-08-09T03:17:07.291Z,65.80
2022-08-09T03:20:10.829Z,66.10
2022-08-09T03:23:15.191Z,66.39
2022-08-09T03:26:09.094Z,67.00
2022-08-09T03:28:59.872Z,66.78
2022-08-09T03:32:00.278Z,66.98
2022-08-09T03:34:55.888Z,67.07
2022-08-09T03:37:55.799Z,67.38
2022-08-09T03:40:55.052Z,67.13
2022-08-09T03:44:03.265Z,67.41
2022-08-09T03:46:59.961Z,67.43
2022-08-09T03:49:58.446Z,67.58
2022-08-09T03:52:46.138Z,67.63
2022-08-09T03:55:47.771Z,67.79
2022-08-09T03:58:38.721Z,68.32
2022-08-09T04:01:28.021Z,68.16
2022-08-09T04:04:15.825Z,68.38
2022-08-09T04:07:03.962Z,68.72
2022-08-09T04:09:54.816Z,68.54
2022-08-09T04:12:53.645Z,69.00
2022-08-09T04:16:20.986Z,68.98
2022-08-09T04:18:51.078Z,68.93
2022-08-09T04:21:40.093Z,68.99
2022-08-09T04:24:27.251Z,69.28
2022-08-09T04:27:14.495Z,69.44
2022-08-09T04:30:02.409Z,69.29
2022-08-09T04:32:52.838Z,69.36
2022-08-09T04:35:42.615Z,69.47
2022-08-09T04:39:41.077Z,70.19
2022-08-09T04:42:31.781Z,69.88
2022-08-09T04:45:22.688Z,69.93
2022-08-09T04:48:10.719Z,70.00
2022-08-09T04:50:58.002Z,69.95
2022-08-09T04:53:45.163Z,70.02
2022-08-09T04:56:35.660Z,69.77
2022-08-09T04:59:26.674Z,70.16
2022-08-09T05:02:27.324Z,69.91
2022-08-09T05:05:14.630Z,70.03
2022-08-09T05:08:19.599Z,69.89
2022-08-09T05:11:15.874Z,69.70
2022-08-09T05:14:07.887Z,69.57
2022-08-09T05:17:02.736Z,69.71
2022-08-09T05:19:50.782Z,69.40
2022-08-09T05:23:55.428Z,69.92
2022-08-09T05:25:54.163Z,68.89
2022-08-09T05:28:46.782Z,69.06
2022-08-09T05:31:44.187Z,68.92
2022-08-09T05:34:38.724Z,68.88
2022-08-09T05:37:47.763Z,68.65
2022-08-09T05:40:40.075Z,68.69
2022-08-09T05:43:37.104Z,68.50
2022-08-09T05:46:25.509Z,68.40
2022-08-09T05:50:24.488Z,68.43
2022-08-09T05:52:30.813Z,68.43
2022-08-09T05:55:23.989Z,68.15
2022-08-09T05:58:11.779Z,68.58
2022-08-09T06:01:06.670Z,67.86
2022-08-09T06:03:58.907Z,68.07
2022-08-09T06:06:49.790Z,67.92
2022-08-09T06:10:02.094Z,67.54
2022-08-09T06:12:57.780Z,67.58
2022-08-09T06:16:04.952Z,67.45
2022-08-09T06:18:53.150Z,67.16
2022-08-09T06:21:51.554Z,67.39
2022-08-09T06:24:45.755Z,67.09
2022-08-09T06:27:42.379Z,67.18
2022-08-09T06:30:29.420Z,67.01
2022-08-09T06:33:40.008Z,66.67
2022-08-09T06:36:27.094Z,66.93
2022-08-09T06:39:14.873Z,66.73
2022-08-09T06:42:09.434Z,66.58
2022-08-09T06:46:04.348Z,66.45
2022-08-09T06:48:09.517Z,66.29
2022-08-09T06:51:05.990Z,66.08
2022-08-09T06:53:54.078Z,66.12
2022-08-09T06:56:45.618Z,66.19
2022-08-09T07:00:52.511Z,66.60
2022-08-09T07:02:45.510Z,66.54
2022-08-09T07:06:02.638Z,66.46
2022-08-09T07:08:42.526Z,66.68
2022-08-09T07:11:45.689Z,66.56
2022-08-09T07:14:39.476Z,66.58
2022-08-09T07:17:25.306Z,66.49
2022-08-09T07:20:12.723Z,66.40
2022-08-09T07:22:59.538Z,66.34
2022-08-09T07:25:52.576Z,66.47
2022-08-09T07:29:01.356Z,66.76
2022-08-09T07:31:56.483Z,66.65
2022-08-09T07:34:44.229Z,66.55
2022-08-09T07:37:43.308Z,66.61
2022-08-09T07:40:54.097Z,66.19
2022-08-09T07:43:41.019Z,65.94
2022-08-09T07:46:28.031Z,65.66
2022-08-09T07:49:17.109Z,65.44
2022-08-09T07:52:16.856Z,65.04
2022-08-09T07:55:08.934Z,64.58
2022-08-09T07:57:58.405Z,64.10
2022-08-09T08:00:49.296Z,63.09
2022-08-09T08:03:54.357Z,62.40
2022-08-09T08:06:56.000Z,61.90
2022-08-09T08:09:51.546Z,61.67
2022-08-09T08:12:45.207Z,60.57
2022-08-09T08:15:39.233Z,60.37
2022-08-09T08:18:28.083Z,59.68
2022-08-09T08:21:14.090Z,59.22
2022-08-09T08:24:12.117Z,59.29
2022-08-09T08:27:03.418Z,58.71
2022-08-09T08:29:52.533Z,58.26
2022-08-09T08:32:52.634Z,57.47
2022-08-09T08:35:58.552Z,57.17
2022-08-09T08:38:48.429Z,56.18
2022-08-09T08:41:41.783Z,55.99
2022-08-09T08:44:39.605Z,55.94
2022-08-09T08:47:28.278Z,55.51
2022-08-09T08:50:18.140Z,55.30
2022-08-09T08:53:05.465Z,54.45
2022-08-09T08:55:52.865Z,53.74
2022-08-09T08:58:46.367Z,53.97
2022-08-09T09:01:53.010Z,52.92
2022-08-09T09:04:48.130Z,52.35
2022-08-09T09:07:45.129Z,51.86
2022-08-09T09:10:32.315Z,51.91
2022-08-09T09:13:19.309Z,51.04
2022-08-09T09:16:11.295Z,50.89
2022-08-09T09:22:16.447Z,49.98
2022-08-09T09:26:01.612Z,49.31
2022-08-09T09:28:10.891Z,49.47
2022-08-09T09:31:02.047Z,49.23
2022-08-09T09:33:56.813Z,48.96
2022-08-09T09:36:51.009Z,49.10
2022-08-09T09:39:55.637Z,48.41
2022-08-09T09:42:46.254Z,48.44
2022-08-09T09:49:03.215Z,48.39
2022-08-09T09:51:51.356Z,47.86
2022-08-09T09:54:40.162Z,47.91
2022-08-09T09:58:03.949Z,48.06
2022-08-09T10:00:54.094Z,47.24
2022-08-09T10:03:57.063Z,47.35
2022-08-09T10:06:52.119Z,47.10
2022-08-09T10:09:54.617Z,46.82
2022-08-09T10:12:43.561Z,46.86
2022-08-09T10:16:09.508Z,46.49
2022-08-09T10:18:39.008Z,46.39
2022-08-09T10:21:50.045Z,46.18
2022-08-09T10:24:37.270Z,45.36
2022-08-09T10:27:28.495Z,45.38
2022-08-09T10:34:05.001Z,44.82
2022-08-09T10:36:31.787Z,43.18
2022-08-09T10:39:28.321Z,43.41
2022-08-09T10:42:17.203Z,42.51
2022-08-09T10:45:11.905Z,42.39
2022-08-09T10:48:30.447Z,40.95
2022-08-09T10:51:44.506Z,40.28
2022-08-09T10:54:33.788Z,40.66
2022-08-09T10:57:36.379Z,40.52
2022-08-09T11:01:10.876Z,40.38
2022-08-09T11:04:27.742Z,40.78
2022-08-09T11:07:19.161Z,40.65
2022-08-09T11:10:10.029Z,39.41
2022-08-09T11:13:50.511Z,39.48
2022-08-09T11:16:41.470Z,39.11
2022-08-09T11:20:07.804Z,38.92
2022-08-09T11:22:58.754Z,39.53
2022-08-09T11:25:48.250Z,39.66
2022-08-09T11:28:56.306Z,39.28
2022-08-09T11:31:49.850Z,39.44
2022-08-09T11:34:51.431Z,39.52
2022-08-09T11:37:41.566Z,39.99
2022-08-09T11:40:32.104Z,39.26
2022-08-09T11:43:32.255Z,40.07
2022-08-09T11:46:33.015Z,40.04
2022-08-09T11:49:28.063Z,39.96
2022-08-09T11:53:03.500Z,40.11
2022-08-09T11:55:52.856Z,39.51
2022-08-09T11:58:48.226Z,39.21
2022-08-09T12:02:17.753Z,38.77
2022-08-09T12:04:47.507Z,38.17
2022-08-09T12:07:42.207Z,38.01
2022-08-09T12:10:39.384Z,37.94
2022-08-09T12:14:07.452Z,38.19
2022-08-09T12:16:44.463Z,38.08
2022-08-09T12:19:35.925Z,38.26
2022-08-09T12:22:27.528Z,38.02
2022-08-09T12:25:35.930Z,38.37
2022-08-09T12:29:14.240Z,38.43
2022-08-09T12:31:58.997Z,38.83
2022-08-09T12:34:39.781Z,38.84
2022-08-09T12:37:50.600Z,39.27
2022-08-09T12:40:44.793Z,38.98
2022-08-09T12:44:07.032Z,39.14
2022-08-09T12:46:49.228Z,39.40
2022-08-09T12:49:37.161Z,39.64
2022-08-09T12:52:40.306Z,39.41
2022-08-09T12:56:13.681Z,38.84
2022-08-09T12:58:43.433Z,38.92
2022-08-09T13:01:29.911Z,38.45
2022-08-09T13:04:27.545Z,38.42
2022-08-09T13:07:49.988Z,38.22
2022-08-09T13:10:34.881Z,38.73
2022-08-09T13:14:01.046Z,38.54
2022-08-09T13:16:51.993Z,38.44
2022-08-09T13:20:06.964Z,38.87
2022-08-09T13:23:04.871Z,39.03
2022-08-09T13:25:56.151Z,39.10
2022-08-09T13:28:43.574Z,38.78
2022-08-09T13:32:15.902Z,38.30
2022-08-09T13:34:40.681Z,38.00
2022-08-09T13:37:52.465Z,38.25
2022-08-09T13:41:50.640Z,37.83
2022-08-09T13:43:41.707Z,37.91
2022-08-09T13:47:13.039Z,38.08
2022-08-09T13:49:39.518Z,38.18
2022-08-09T13:52:46.044Z,37.73
2022-08-09T13:55:33.881Z,38.45
2022-08-09T13:58:25.755Z,38.86
2022-08-09T14:01:55.710Z,39.72
2022-08-09T14:04:26.530Z,41.30
2022-08-09T14:07:16.779Z,43.08
2022-08-09T14:10:05.909Z,43.26
2022-08-09T14:12:54.239Z,44.20
2022-08-09T14:16:06.513Z,44.48
2022-08-09T14:18:51.633Z,45.12
2022-08-09T14:21:40.279Z,45.50
2022-08-09T14:24:32.576Z,45.91
2022-08-09T14:27:21.394Z,46.32
2022-08-09T14:30:36.911Z,46.83
2022-08-09T14:33:20.711Z,47.01
2022-08-09T14:36:20.206Z,47.04
2022-08-09T14:39:10.873Z,47.07
2022-08-09T14:42:01.036Z,47.44
2022-08-09T14:45:00.107Z,47.04
2022-08-09T14:47:59.399Z,47.06
2022-08-09T14:50:48.081Z,47.29
2022-08-09T14:53:38.989Z,47.68
2022-08-09T14:56:33.025Z,47.58
2022-08-09T14:59:22.782Z,47.67
2022-08-09T15:02:11.443Z,47.69
2022-08-09T15:05:01.000Z,48.07
2022-08-09T15:07:56.316Z,48.08
2022-08-09T15:11:00.643Z,47.95
2022-08-09T15:14:01.691Z,48.20
2022-08-09T15:16:53.560Z,48.44
2022-08-09T15:19:54.495Z,48.32
2022-08-09T15:22:49.670Z,47.69
2022-08-09T15:25:50.224Z,47.79
2022-08-09T15:28:36.895Z,46.95
2022-08-09T15:31:41.871Z,46.76
2022-08-09T15:34:32.599Z,46.97
2022-08-09T15:37:57.062Z,46.72
2022-08-09T15:40:53.171Z,46.61
2022-08-09T15:43:43.538Z,47.00
2022-08-09T15:46:35.301Z,46.64
2022-08-09T15:49:23.736Z,46.75
2022-08-09T15:52:11.919Z,46.65
2022-08-09T15:54:58.248Z,46.47
2022-08-09T15:57:51.172Z,46.89
2022-08-09T16:00:38.344Z,47.14
2022-08-09T16:03:29.521Z,46.79
2022-08-09T16:06:35.675Z,47.42
2022-08-09T16:09:32.532Z,47.39
2022-08-09T16:12:34.743Z,47.42
2022-08-09T16:16:11.679Z,47.30
2022-08-09T16:18:34.593Z,47.50
2022-08-09T16:21:25.838Z,47.71
2022-08-09T16:24:30.257Z,48.08
2022-08-09T16:27:20.608Z,48.16
2022-08-09T16:30:14.926Z,48.51
2022-08-09T16:33:08.838Z,48.71
2022-08-09T16:35:59.945Z,48.74
2022-08-09T16:38:51.614Z,48.55
2022-08-09T16:42:03.489Z,48.99
2022-08-09T16:44:47.607Z,49.03
2022-08-09T16:48:43.399Z,49.00
2022-08-09T16:50:58.796Z,49.13
2022-08-09T16:56:55.299Z,49.29
2022-08-09T16:59:50.240Z,49.03
2022-08-09T17:02:46.693Z,49.27
2022-08-09T17:06:03.422Z,49.45
2022-08-09T17:08:59.866Z,49.35
2022-08-09T17:11:54.317Z,49.08
2022-08-09T17:14:46.352Z,48.90
2022-08-09T17:17:50.761Z,48.45
2022-08-09T17:20:44.268Z,48.37
2022-08-09T17:24:20.582Z,48.33
2022-08-09T17:26:53.384Z,47.99
2022-08-09T17:29:45.653Z,48.40
2022-08-09T17:32:37.959Z,48.32
2022-08-09T17:35:26.166Z,48.36
2022-08-09T17:38:32.611Z,48.51
2022-08-09T17:41:21.895Z,48.59
2022-08-09T17:44:42.569Z,49.07
2022-08-09T17:47:32.951Z,49.23
2022-08-09T17:50:37.759Z,49.29
2022-08-09T17:53:25.821Z,49.71
2022-08-09T17:56:12.451Z,49.57
2022-08-09T17:59:01.146Z,49.61
2022-08-09T18:02:07.536Z,49.89
2022-08-09T18:04:58.792Z,50.23
2022-08-09T18:07:48.770Z,50.21
2022-08-09T18:10:38.616Z,50.78
2022-08-09T18:13:43.054Z,50.48
2022-08-09T18:16:49.052Z,50.94
2022-08-09T18:20:55.070Z,50.84
2022-08-09T18:22:52.296Z,51.04
2022-08-09T18:25:52.682Z,51.21
2022-08-09T18:30:41.447Z,51.65
2022-08-09T18:31:55.063Z,51.93
2022-08-09T18:34:43.879Z,52.07
2022-08-09T18:37:48.020Z,52.27
2022-08-09T18:40:36.975Z,52.60
2022-08-09T18:43:24.235Z,52.51
2022-08-09T18:46:50.913Z,52.53
2022-08-09T18:49:26.605Z,53.09
2022-08-09T18:52:15.753Z,53.09
2022-08-09T18:55:03.502Z,53.05
2022-08-09T18:57:50.259Z,53.19
2022-08-09T19:00:43.346Z,53.56
2022-08-09T19:03:29.706Z,53.74
2022-08-09T19:06:38.612Z,54.23
2022-08-09T19:10:12.810Z,54.34
2022-08-09T19:12:31.992Z,54.24
2022-08-09T19:15:20.306Z,54.49
2022-08-09T19:18:16.934Z,54.94
2022-08-09T19:21:05.557Z,55.35
2022-08-09T19:24:33.205Z,55.85
2022-08-09T19:27:01.473Z,56.10
2022-08-09T19:30:24.715Z,56.32
2022-08-09T19:32:55.397Z,56.25
2022-08-09T19:35:56.464Z,56.49
2022-08-09T19:38:45.043Z,56.75
2022-08-09T19:41:37.259Z,56.59
2022-08-09T19:44:29.472Z,56.62
2022-08-09T19:47:15.972Z,57.19
2022-08-09T19:50:51.221Z,57.86
2022-08-09T19:53:20.907Z,58.47
2022-08-09T19:56:07.258Z,58.62
2022-08-09T19:59:39.312Z,58.93
2022-08-09T20:02:18.252Z,58.64
2022-08-09T20:05:18.161Z,58.87
2022-08-09T20:08:05.981Z,58.66
2022-08-09T20:10:52.302Z,59.08
2022-08-09T20:13:39.555Z,58.92
2022-08-09T20:16:33.706Z,59.55
2022-08-09T20:19:49.582Z,59.88
2022-08-09T20:22:35.754Z,60.36
2022-08-09T20:25:24.260Z,60.69
2022-08-09T20:28:12.897Z,61.27
2022-08-09T20:31:15.330Z,61.59
2022-08-09T20:34:02.177Z,61.72
2022-08-09T20:36:51.027Z,62.11
2022-08-09T20:40:15.014Z,62.67
2022-08-09T20:42:46.508Z,62.52
2022-08-09T20:45:59.592Z,62.48
2022-08-09T20:48:49.814Z,62.04
2022-08-09T20:51:40.798Z,62.46
2022-08-09T20:54:28.875Z,62.91
2022-08-09T20:57:15.401Z,62.92
2022-08-09T21:00:22.265Z,62.88
2022-08-09T21:03:12.852Z,63.10
2022-08-09T21:06:09.448Z,63.39
2022-08-09T21:09:24.948Z,63.38
2022-08-09T21:12:23.617Z,63.58
2022-08-09T21:15:23.576Z,63.69
2022-08-09T21:18:25.931Z,63.61
2022-08-09T21:21:17.026Z,63.61
2022-08-09T21:24:04.787Z,63.94
2022-08-09T21:26:51.983Z,64.51
2022-08-09T21:29:48.574Z,64.69
2022-08-09T21:32:36.939Z,65.04
2022-08-09T21:35:24.555Z,65.50
2022-08-09T21:38:14.928Z,66.10
2022-08-09T21:41:03.617Z,66.23
2022-08-09T21:43:56.536Z,66.42
2022-08-09T21:46:44.657Z,66.64
2022-08-09T21:49:39.722Z,66.13
2022-08-09T21:52:29.470Z,66.04
2022-08-09T21:55:15.918Z,66.48
2022-08-09T21:58:03.264Z,66.76
2022-08-09T22:00:52.549Z,67.06
2022-08-09T22:03:48.577Z,67.42
2022-08-09T22:06:58.959Z,67.76
2022-08-09T22:09:47.910Z,67.93
2022-08-09T22:12:35.641Z,68.25
2022-08-09T22:15:34.836Z,68.64
2022-08-09T22:18:24.069Z,69.06
2022-08-09T22:21:21.574Z,69.35
2022-08-09T22:24:08.286Z,69.54
2022-08-09T22:27:04.649Z,69.88
2022-08-09T22:29:50.368Z,70.46
2022-08-09T22:32:36.730Z,70.65
2022-08-09T22:36:01.272Z,70.93
2022-08-09T22:38:31.083Z,70.31
2022-08-09T22:41:18.363Z,70.04
2022-08-09T22:44:07.293Z,69.60
2022-08-09T22:48:10.693Z,68.99
2022-08-09T22:50:01.964Z,68.76
2022-08-09T22:52:49.113Z,68.46
2022-08-09T22:56:30.129Z,68.34
2022-08-09T22:58:47.345Z,67.90
2022-08-09T23:01:34.041Z,67.58
2022-08-09T23:04:20.326Z,67.33
2022-08-09T23:07:31.150Z,67.29
2022-08-09T23:10:31.670Z,67.24
2022-08-09T23:13:19.923Z,67.23
2022-08-09T23:16:07.634Z,66.88
2022-08-09T23:18:55.224Z,66.62
2022-08-09T23:21:41.304Z,66.56
2022-08-09T23:24:28.028Z,66.45
2022-08-09T23:27:13.954Z,66.41
2022-08-09T23:29:59.773Z,66.12
2022-08-09T23:32:45.920Z,66.40
2022-08-09T23:36:06.546Z,66.23
2022-08-09T23:38:49.106Z,66.00
2022-08-09T23:41:35.813Z,66.68
2022-08-09T23:44:22.804Z,66.97
2022-08-09T23:47:09.075Z,66.66
2022-08-09T23:49:55.248Z,66.53
2022-08-09T23:52:41.573Z,66.43
2022-08-09T23:55:31.080Z,66.47
2022-08-09T23:58:27.607Z,66.47
